• Join FlightAware (Why Join?)
  • Login
  • US Flag 
04:12AM EDT


 

Airport Tracker/Info


-or-


 

Live Flight TrackerFlight Track Log ✈ SWA4045 ✈ 06-Jan-2014 ✈ KMDW - KTPA

Flight Track Log - Related Links

Times and Time Zones

All times are in EST time to prevent confusion due to time zone crossing. See the SWA4045 flight status page for this flight to view local times or setup timezone preferences in your user account.

Time Position Orientation Groundspeed Altitude Reporting Facility
EST Latitude Longitude Course Direction KTS MPH feet Rate Location/Type
10:15PM 41.7917 -87.7872 161° South 114 131 2,900  Level Chicago Center
10:16PM 41.7311 -87.8083 195° South 238 274 5,400 3,000 Climbing Chicago Center
10:17PM 41.6572 -87.8239 189° South 261 300 9,100 2,940 Climbing Chicago Center
10:18PM 41.5728 -87.8422 189° South 303 349 11,400 2,520 Climbing Chicago Center
10:19PM 41.4728 -87.8650 190° South 354 407 14,200 2,820 Climbing Chicago Center
10:21PM 41.3408 -87.5509 161° South  Level Estimated
10:21PM 41.3650 -87.8850 188° South 378 435 17,200  Level Chicago Center
10:22PM 41.2511 -87.8936 183° South 399 459 19,600 2,400 Climbing Chicago Center
10:23PM 41.1300 -87.8894 179° South 426 490 22,200 2,340 Climbing Chicago Center
10:24PM 41.0083 -87.8853 179° South 434 499 24,500 2,100 Climbing Chicago Center
10:25PM 40.8831 -87.8803 178° South 446 513 26,500 1,680 Climbing Chicago Center
10:26PM 40.7539 -87.8756 178° South 458 527 27,900 1,260 Climbing Chicago Center
10:27PM 40.6197 -87.8714 179° South 476 548 29,100 1,080 Climbing Chicago Center
10:28PM 40.4811 -87.8672 179° South 492 566 30,200 1,320 Climbing Chicago Center
10:29PM 40.3414 -87.8669 180° South 500 575 31,900 1,620 Climbing Chicago Center
10:30PM 40.2061 -87.8847 186° South 488 562 33,500 1,380 Climbing Chicago Center
10:31PM 40.0647 -87.9022 185° South 489 563 34,800 1,320 Climbing Chicago Center
10:32PM 39.9303 -87.9158 184° South 488 562 36,200 1,260 Climbing Chicago Center
10:33PM 39.7936 -87.8933 173° South 495 570 37,200 960 Climbing Indianapolis Center
10:34PM 39.6625 -87.8456 164° South 496 571 38,100 780 Climbing Indianapolis Center
10:35PM 39.5278 -87.7994 165° South 498 573 38,800 420 Climbing Indianapolis Center
10:36PM 39.3944 -87.7533 165° South 499 574 39,000 60 Climbing Indianapolis Center
10:37PM 39.2556 -87.7050 165° South 502 578 39,000  Level Indianapolis Center
10:38PM 39.1214 -87.6611 166° South 495 570 39,000  Level Indianapolis Center
10:39PM 38.9864 -87.6153 165° South 498 573 39,000  Level Indianapolis Center
10:40PM 38.8519 -87.5694 165° South 498 573 39,000  Level Indianapolis Center
10:41PM 38.7197 -87.5244 165° South 491 565 39,000  Level Indianapolis Center
10:42PM 38.5872 -87.4789 165° South 491 565 39,000  Level Indianapolis Center
10:43PM 38.4558 -87.4347 165° South 489 563 39,000  Level Indianapolis Center
10:44PM 38.3250 -87.3906 165° South 490 564 39,000  Level Indianapolis Center
10:45PM 38.1944 -87.3489 166° South 490 564 39,000  Level Indianapolis Center
10:46PM 38.0631 -87.3047 165° South 491 565 39,000  Level Indianapolis Center
10:47PM 37.9306 -87.2617 166° South 493 567 39,000  Level Indianapolis Center
10:48PM 37.7797 -87.2117 165° South 493 567 39,000  Level Indianapolis Center
10:49PM 37.6644 -87.1750 166° South 493 567 39,000  Level Indianapolis Center
10:50PM 37.5131 -87.1236 165° South 489 563 39,000  Level Indianapolis Center
10:51PM 37.3819 -87.0844 167° South 485 558 39,000  Level Indianapolis Center
10:52PM 37.2506 -87.0422 166° South 484 557 39,000  Level Indianapolis Center
10:53PM 37.1206 -86.9989 165° South 480 552 39,000  Level Indianapolis Center
10:53PM 37.0333 -86.9686 165° South 479 551 39,000  Level Memphis Center
10:54PM 36.9047 -86.9250 165° South 475 547 39,000  Level Memphis Center
10:56PM 36.7753 -86.8675 160° South 483 556 39,000  Level Memphis Center
10:57PM 36.6453 -86.8106 161° South 487 560 39,000  Level Memphis Center
10:58PM 36.5144 -86.7547 161° South 488 562 39,000  Level Memphis Center
10:59PM 36.3822 -86.6981 161° South 487 560 39,000  Level Memphis Center
11:00PM 36.2508 -86.6419 161° South 485 558 39,000  Level Memphis Center
11:01PM 36.1208 -86.5864 161° South 485 558 39,000  Level Memphis Center
11:02PM 35.9906 -86.5306 161° South 486 559 39,000  Level Memphis Center
11:03PM 35.8619 -86.4758 161° South 484 557 39,000  Level Memphis Center
11:04PM 35.7333 -86.4211 161° South 484 557 39,000  Level Memphis Center
11:05PM 35.6047 -86.3675 161° South 482 555 39,000  Level Memphis Center
11:06PM 35.4769 -86.3136 161° South 481 554 39,000  Level Memphis Center
11:07PM 35.3497 -86.2600 161° South 479 551 39,000  Level Memphis Center
11:08PM 35.2264 -86.2097 162° South 467 537 39,000  Level Memphis Center
11:09PM 35.1183 -86.1642 161° South 452 520 39,000  Level Memphis Center
11:10PM 35.0008 -86.1156 161° South 447 514 39,000  Level Memphis Center
11:11PM 34.8831 -86.0669 161° South 448 516 39,000  Level Memphis Center
11:12PM 34.7547 -86.0147 162° South 450 518 39,000  Level Memphis Center
11:13PM 34.6344 -85.9661 162° South 452 520 39,000  Level Memphis Center
11:14PM 34.5144 -85.9161 161° South 454 522 39,000  Level Memphis Center
11:15PM 34.3936 -85.8658 161° South 457 526 39,000  Level Memphis Center
11:16PM 34.2408 -85.8078 163° South 458 527 39,000  Level Atlanta Center
11:17PM 34.1206 -85.7550 160° South 452 520 39,000  Level Atlanta Center
11:18PM 34.0061 -85.7128 163° South 445 512 39,000  Level Atlanta Center
11:19PM 33.8900 -85.6653 161° South 440 506 39,000  Level Atlanta Center
11:20PM 33.7925 -85.6261 162° South 435 501 39,000  Level Atlanta Center
11:21PM 33.6822 -85.5817 161° South 415 478 39,000  Level Atlanta Center
11:22PM 33.5744 -85.5372 161° South 420 483 39,000  Level Atlanta Center
11:23PM 33.4664 -85.4981 163° South 414 476 39,000  Level Atlanta Center
11:24PM 33.3583 -85.4564 162° South 414 476 39,000  Level Atlanta Center
11:25PM 33.2481 -85.4125 162° South 419 482 39,000  Level Atlanta Center
11:26PM 33.1361 -85.3511 155° Southeast 425 489 39,000  Level Atlanta Center
11:27PM 33.0239 -85.2850 154° Southeast 436 502 39,000  Level Atlanta Center
11:28PM 32.9119 -85.2264 156° South 441 507 39,000  Level Atlanta Center
11:29PM 32.8039 -85.1708 157° South 436 502 39,000  Level Atlanta Center
11:30PM 32.6897 -85.1100 156° South 445 512 39,000  Level Atlanta Center
11:31PM 32.5775 -85.0519 156° South 435 501 39,000  Level Atlanta Center
11:33PM 32.3775 -84.9492 157° South 427 491 39,000  Level Jacksonville Center
11:34PM 32.2697 -84.8975 158° South 427 491 39,000  Level Jacksonville Center
11:35PM 32.1619 -84.8386 155° Southeast 427 491 39,000  Level Jacksonville Center
11:36PM 32.0644 -84.7950 159° South 427 491 39,000  Level Jacksonville Center
11:37PM 31.9547 -84.7364 156° South 427 491 39,000  Level Jacksonville Center
11:38PM 31.8469 -84.6828 157° South 427 491 39,000  Level Jacksonville Center
11:39PM 31.7350 -84.6269 157° South 432 497 39,000  Level Jacksonville Center
11:40PM 31.6292 -84.5714 156° South 432 497 39,000  Level Jacksonville Center
11:41PM 31.5194 -84.5181 157° South 432 497 39,000  Level Jacksonville Center
11:42PM 31.4114 -84.4650 157° South 432 497 39,000  Level Jacksonville Center
11:43PM 31.3056 -84.4075 155° Southeast 432 497 39,000  Level Jacksonville Center
11:44PM 31.1997 -84.3547 157° South 427 491 39,000  Level Jacksonville Center
11:45PM 31.0939 -84.3022 157° South 422 486 39,000  Level Jacksonville Center
11:46PM 30.9900 -84.2497 157° South 416 479 39,000  Level Jacksonville Center
11:47PM 30.8800 -84.1972 158° South 416 479 39,000  Level Jacksonville Center
11:48PM 30.7739 -84.1425 156° South 416 479 39,000  Level Jacksonville Center
11:49PM 30.6658 -84.0906 158° South 416 479 39,000  Level Jacksonville Center
11:50PM 30.5578 -84.0383 157° South 416 479 39,000  Level Jacksonville Center
11:51PM 30.4539 -83.9817 155° Southeast 416 479 39,000  Level Jacksonville Center
11:52PM 30.3458 -83.9300 158° South 416 479 39,000  Level Jacksonville Center
11:53PM 30.2356 -83.8758 157° South 421 484 39,000  Level Jacksonville Center
11:54PM 30.1233 -83.8219 157° South 421 484 39,000  Level Jacksonville Center
11:55PM 30.0131 -83.7681 157° South 426 490 39,000  Level Jacksonville Center
11:56PM 29.9006 -83.7144 158° South 431 496 39,000  Level Jacksonville Center
11:57PM 29.7925 -83.6608 157° South 431 496 39,000  Level Jacksonville Center
11:58PM 29.6819 -83.6075 157° South 431 496 39,000 -960 Level Jacksonville Center
11:59PM 29.5739 -83.5542 157° South 431 496 37,200 -2,280 Descending Jacksonville Center
12:00AM 29.4633 -83.5033 158° South 431 496 34,500 -2,700 Descending Jacksonville Center
12:01AM 29.3508 -83.4500 158° South 431 496 31,900 -2,340 Descending Jacksonville Center
12:02AM 29.2406 -83.3972 157° South 431 496 29,800 -2,100 Descending Jacksonville Center
12:03AM 29.1364 -83.3442 156° South 426 490 27,700 -2,160 Descending Jacksonville Center
12:04AM 29.0322 -83.2964 158° South 414 476 25,600 -2,100 Descending Jacksonville Center
12:05AM 28.9300 -83.2461 157° South 414 476 23,600 -2,040 Descending Jacksonville Center
12:06AM 28.8342 -83.2006 157° South 402 463 21,600 -1,920 Descending Jacksonville Center
12:07AM 28.7403 -83.1578 158° South 382 440 19,800 -1,860 Descending Jacksonville Center
12:09AM 28.5667 -83.0667 155° Southeast 331 381 16,400 -1,860 Descending Tampa TRACON
12:10AM 28.4833 -83.0333 161° South 331 381 14,600 -1,860 Descending Tampa TRACON
12:11AM 28.4000 -82.9833 152° Southeast 336 387 12,700 -1,800 Descending Tampa TRACON
12:12AM 28.3167 -82.9333 152° Southeast 341 392 11,000 -1,080 Descending Tampa TRACON
12:13AM 28.2333 -82.8833 152° Southeast 339 390 10,600 -720 Descending Tampa TRACON
12:14AM 28.1667 -82.8167 139° Southeast 332 382 9,600 -1,140 Descending Tampa TRACON
12:15AM 28.1000 -82.7333 132° Southeast 312 359 8,400 -1,320 Descending Tampa TRACON
12:16AM 28.0500 -82.6667 130° Southeast 301 346 7,000 -1,380 Descending Tampa TRACON
12:17AM 27.9833 -82.6167 146° Southeast 293 337 5,700 -1,260 Descending Tampa TRACON
12:18AM 27.9167 -82.6167 180° South 251 289 4,500 -1,140 Descending Tampa TRACON
12:19AM 27.8500 -82.6167 180° South 221 254 3,500 -900 Descending Tampa TRACON
12:20AM 27.8333 -82.5667 111° Southeast 173 199 2,700 -900 Descending Tampa TRACON
12:21AM 27.8667 -82.5500 24° Northeast 157 181 1,800 -840 Descending Tampa TRACON
12:22AM 27.9167 -82.5500 360° North 136 157 1,100 -780 Descending Tampa TRACON
12:23AM 27.9500 -82.5500 360° North 130 150 300 -840 Descending Tampa TRACON